createdAt,value
2023-02-23T15:42:13.748Z,36.61
2023-02-23T15:46:14.801Z,37.94
2023-02-23T15:53:30.347Z,38.62
2023-02-23T15:57:30.331Z,39.09
2023-02-23T16:05:46.615Z,38.63
2023-02-23T16:09:40.763Z,38.81
2023-02-23T16:13:39.627Z,38.67
2023-02-23T16:17:39.677Z,38.66
2023-02-23T16:21:39.855Z,38.61
2023-02-23T16:25:40.017Z,38.61
2023-02-23T16:29:40.172Z,38.94
2023-02-23T16:33:40.311Z,38.81
2023-02-23T16:37:40.185Z,38.85
2023-02-23T16:41:40.138Z,38.58
2023-02-23T16:45:40.069Z,38.50
2023-02-23T16:49:39.900Z,38.32
2023-02-23T16:53:39.799Z,38.44
2023-02-23T16:57:39.708Z,38.60
2023-02-23T17:01:39.595Z,38.40
2023-02-23T17:05:39.495Z,38.48
2023-02-23T17:09:39.455Z,38.36
2023-02-23T17:13:39.347Z,38.46
2023-02-23T17:17:39.506Z,38.41
2023-02-23T17:21:39.402Z,38.34
2023-02-23T17:25:39.308Z,38.39
2023-02-23T17:29:39.244Z,38.48
2023-02-23T17:33:39.131Z,38.38
2023-02-23T17:37:39.009Z,38.45
2023-02-23T17:41:38.917Z,38.39
2023-02-23T17:45:38.812Z,38.56
2023-02-23T17:49:38.751Z,38.36
2023-02-23T17:53:38.628Z,38.41
2023-02-23T17:57:38.569Z,38.51
2023-02-23T18:01:38.446Z,38.47
2023-02-23T18:05:38.428Z,38.50
2023-02-23T18:09:38.294Z,38.54
2023-02-23T18:13:38.191Z,38.49
2023-02-23T18:17:38.134Z,38.45
2023-02-23T18:21:38.076Z,38.42
2023-02-23T18:25:38.006Z,38.43
2023-02-23T18:29:37.950Z,38.30
2023-02-23T18:33:37.881Z,38.26
2023-02-23T18:37:37.901Z,38.17
2023-02-23T18:41:37.736Z,38.16
2023-02-23T18:45:37.608Z,38.01
2023-02-23T18:49:37.578Z,37.92
2023-02-23T18:53:37.572Z,37.87
2023-02-23T18:57:37.491Z,37.82
2023-02-23T19:01:37.464Z,37.74
2023-02-23T19:05:37.407Z,37.71
2023-02-23T19:09:37.333Z,37.64
2023-02-23T19:13:37.250Z,37.53
2023-02-23T19:17:37.234Z,37.47
2023-02-23T19:21:37.142Z,37.40
2023-02-23T19:25:37.064Z,37.36
2023-02-23T19:29:37.049Z,37.29
2023-02-23T19:33:37.059Z,37.22
2023-02-23T19:37:36.900Z,37.19
2023-02-23T19:41:36.855Z,37.13
2023-02-23T19:45:36.840Z,37.02
2023-02-23T19:49:36.737Z,36.96
2023-02-23T19:53:36.672Z,36.95
2023-02-23T19:57:36.662Z,36.86
2023-02-23T20:01:36.628Z,36.84
2023-02-23T20:05:36.599Z,36.74
2023-02-23T20:09:36.502Z,36.71
2023-02-23T20:13:36.496Z,36.66
2023-02-23T20:17:36.399Z,36.58
2023-02-23T20:21:36.440Z,36.53
2023-02-23T20:25:36.387Z,36.51
2023-02-23T20:29:36.370Z,36.45
2023-02-23T20:33:36.356Z,36.43
2023-02-23T20:37:36.401Z,36.37
2023-02-23T20:41:36.360Z,36.27
2023-02-23T20:45:36.401Z,36.24
2023-02-23T20:49:36.416Z,36.19
2023-02-23T20:53:36.419Z,36.17
2023-02-23T20:57:36.406Z,36.14
2023-02-23T21:01:36.438Z,36.06
2023-02-23T21:05:38.190Z,36.03
2023-02-23T21:09:36.458Z,36.00
2023-02-23T21:13:36.486Z,35.95
2023-02-23T21:17:36.448Z,35.94
2023-02-23T21:21:36.436Z,35.86
2023-02-23T21:25:36.481Z,35.83
2023-02-23T21:29:36.459Z,35.80
2023-02-23T21:33:36.466Z,35.77
2023-02-23T21:37:36.457Z,35.71
2023-02-23T21:41:36.444Z,35.68
2023-02-23T21:45:36.447Z,35.63
2023-02-23T21:49:36.449Z,35.61
2023-02-23T21:53:36.447Z,35.57
2023-02-23T21:57:36.452Z,35.54
2023-02-23T22:01:36.581Z,35.50
2023-02-23T22:05:36.417Z,35.46
2023-02-23T22:09:36.455Z,35.40
2023-02-23T22:13:36.521Z,35.40
2023-02-23T22:17:36.593Z,35.37
2023-02-23T22:21:36.582Z,35.33
2023-02-23T22:25:36.597Z,35.29
2023-02-23T22:29:36.574Z,35.26
2023-02-23T22:33:36.509Z,35.21
2023-02-23T22:37:36.506Z,35.18
2023-02-23T22:41:36.452Z,35.14
2023-02-23T22:45:36.445Z,35.10
2023-02-23T22:49:36.407Z,35.09
2023-02-23T22:53:36.381Z,35.06
2023-02-23T22:57:36.352Z,35.03
2023-02-23T23:01:36.314Z,34.98
2023-02-23T23:05:36.284Z,34.95
2023-02-23T23:09:36.258Z,34.93
2023-02-23T23:13:36.215Z,34.88
2023-02-23T23:17:36.232Z,34.84
2023-02-23T23:21:36.214Z,34.81
2023-02-23T23:25:36.194Z,34.80
2023-02-23T23:29:36.161Z,34.78
2023-02-23T23:33:36.210Z,34.72
2023-02-23T23:37:36.155Z,34.69
2023-02-23T23:41:36.229Z,34.67
2023-02-23T23:45:36.192Z,34.62
2023-02-23T23:49:36.135Z,34.60
2023-02-23T23:53:36.161Z,34.57
2023-02-23T23:57:36.139Z,34.55
